Time;durP1;ratioP1;P1;durP2;ratioP2;P2;SDS_P1;SDS_P2;PMS_P1;PMS_P2;Temp;Humidity;BMP_temperature;BMP_pressure;BME280_temperature;BME280_humidity;BME280_pressure;Samples;Min_cycle;Max_cycle;Signal;HPM_P1;HPM_P2
2021/06/17 00:00:36;;;;;;;4.40;2.15;;;25.60;49.70;;;;;;5054513;28;20021;-68
2021/06/17 00:03:02;;;;;;;5.68;2.30;;;25.60;49.70;;;;;;5053210;28;20392;-69
2021/06/17 00:05:30;;;;;;;4.80;2.42;;;25.60;49.80;;;;;;5054555;28;20086;-68
2021/06/17 00:07:57;;;;;;;5.32;2.45;;;25.60;49.70;;;;;;5054589;28;20028;-68
2021/06/17 00:10:32;;;;;;;3.85;2.33;;;25.60;49.80;;;;;;5054584;28;20029;-69
2021/06/17 00:13:01;;;;;;;4.80;2.45;;;25.60;49.70;;;;;;5054515;28;20140;-71
2021/06/17 00:15:27;;;;;;;5.93;2.67;;;25.60;49.80;;;;;;5054292;28;20021;-70
2021/06/17 00:17:54;;;;;;;4.45;2.10;;;25.60;49.80;;;;;;5052959;28;20389;-71
2021/06/17 00:20:20;;;;;;;4.13;2.60;;;25.50;49.80;;;;;;5054073;28;20055;-69
2021/06/17 00:22:46;;;;;;;4.82;2.20;;;25.50;49.80;;;;;;5054065;28;20052;-70
2021/06/17 00:25:13;;;;;;;5.10;2.75;;;25.50;49.80;;;;;;5054153;28;20417;-70
2021/06/17 00:27:38;;;;;;;3.70;2.15;;;25.50;49.80;;;;;;5054051;28;20021;-69
2021/06/17 00:30:06;;;;;;;4.05;2.10;;;25.50;49.80;;;;;;5053843;28;20393;-69
2021/06/17 00:32:31;;;;;;;4.38;2.50;;;25.50;49.80;;;;;;5052580;28;20097;-70
2021/06/17 00:34:57;;;;;;;4.50;2.50;;;25.50;49.80;;;;;;5053888;28;20100;-70
2021/06/17 00:37:22;;;;;;;3.97;2.35;;;25.50;49.90;;;;;;5054291;28;20025;-70
2021/06/17 00:39:48;;;;;;;4.05;2.50;;;25.50;49.80;;;;;;5052715;28;20024;-70
2021/06/17 00:42:14;;;;;;;4.82;2.17;;;25.50;49.80;;;;;;5052583;28;20037;-70
2021/06/17 00:44:39;;;;;;;4.28;2.33;;;25.50;49.90;;;;;;5053063;28;20036;-70
2021/06/17 00:47:05;;;;;;;3.58;2.15;;;25.50;49.90;;;;;;5053462;28;20048;-70
2021/06/17 00:49:31;;;;;;;4.13;2.30;;;25.50;49.90;;;;;;5052300;28;20051;-70
2021/06/17 00:51:56;;;;;;;4.18;2.30;;;25.50;49.90;;;;;;5052361;28;20041;-70
2021/06/17 00:54:32;;;;;;;4.65;2.47;;;25.50;49.90;;;;;;5053566;28;20029;-69
2021/06/17 00:57:04;;;;;;;4.85;2.72;;;25.50;49.90;;;;;;5053477;28;20021;-70
2021/06/17 00:59:31;;;;;;;4.35;2.30;;;25.50;49.90;;;;;;5053643;28;20027;-70
2021/06/17 01:01:57;;;;;;;3.83;2.38;;;25.40;49.90;;;;;;5053521;28;20053;-70
2021/06/17 01:04:24;;;;;;;3.80;2.10;;;25.40;49.90;;;;;;5053475;28;20032;-69
2021/06/17 01:06:51;;;;;;;4.35;2.47;;;25.40;49.90;;;;;;5053323;28;20029;-68
2021/06/17 01:09:29;;;;;;;3.97;2.05;;;25.40;49.90;;;;;;5053288;28;20033;-69
2021/06/17 01:11:55;;;;;;;4.22;2.22;;;25.40;50.00;;;;;;5053246;28;20415;-69
2021/06/17 01:14:38;;;;;;;5.13;2.42;;;25.40;50.00;;;;;;5053370;28;20033;-69
2021/06/17 01:17:08;;;;;;;3.65;1.83;;;25.40;50.00;;;;;;5053188;28;20087;-69
2021/06/17 01:19:50;;;;;;;5.50;2.40;;;25.40;50.00;;;;;;5053265;28;20021;-69
2021/06/17 01:22:19;;;;;;;4.00;2.42;;;25.40;50.00;;;;;;5057978;28;20025;-69
2021/06/17 01:25:02;;;;;;;4.20;2.28;;;25.40;50.00;;;;;;5053500;28;20052;-69
2021/06/17 01:27:52;;;;;;;4.30;2.25;;;25.30;50.10;;;;;;5053521;28;20079;-69
2021/06/17 01:30:19;;;;;;;4.70;2.53;;;25.30;50.00;;;;;;5053488;28;20024;-69
2021/06/17 01:32:54;;;;;;;4.30;2.38;;;25.30;50.10;;;;;;5053374;28;20029;-69
2021/06/17 01:35:22;;;;;;;4.50;2.42;;;25.30;50.10;;;;;;5053302;28;20021;-69
2021/06/17 01:37:50;;;;;;;4.10;2.08;;;25.30;50.10;;;;;;5057683;28;20032;-69
2021/06/17 01:40:16;;;;;;;4.15;2.35;;;25.30;50.10;;;;;;5062015;28;20475;-70
2021/06/17 01:42:43;;;;;;;5.57;2.30;;;25.30;50.10;;;;;;5054087;28;20532;-71
2021/06/17 01:45:11;;;;;;;3.85;2.20;;;25.30;50.10;;;;;;5054017;28;20056;-69
2021/06/17 01:47:37;;;;;;;4.32;2.50;;;25.30;50.10;;;;;;5053342;28;20025;-69
2021/06/17 01:50:04;;;;;;;4.32;2.40;;;25.30;50.10;;;;;;5053087;28;20396;-68
2021/06/17 01:52:31;;;;;;;4.88;2.70;;;25.20;50.10;;;;;;5052802;28;20036;-69
2021/06/17 01:54:59;;;;;;;3.38;2.03;;;25.20;50.10;;;;;;5053068;28;20485;-70
2021/06/17 01:57:25;;;;;;;4.70;2.47;;;25.20;50.10;;;;;;5055070;28;20032;-69
2021/06/17 01:59:52;;;;;;;4.57;2.45;;;25.20;50.20;;;;;;5055522;28;20079;-69
2021/06/17 02:02:19;;;;;;;4.13;2.60;;;25.20;50.20;;;;;;5056711;28;20028;-68
2021/06/17 02:04:47;;;;;;;4.93;2.13;;;25.20;50.20;;;;;;5057105;28;20024;-69
2021/06/17 02:07:14;;;;;;;4.03;2.13;;;25.20;50.20;;;;;;5056810;28;20086;-69
2021/06/17 02:09:40;;;;;;;4.63;2.25;;;25.20;50.20;;;;;;5056629;28;20537;-69
2021/06/17 02:12:06;;;;;;;4.72;2.28;;;25.20;50.20;;;;;;5056467;28;20124;-68
2021/06/17 02:14:33;;;;;;;4.38;2.40;;;25.20;50.20;;;;;;5056701;28;20093;-69
2021/06/17 02:17:01;;;;;;;5.65;2.90;;;25.20;50.20;;;;;;5056805;28;20025;-69
2021/06/17 02:19:29;;;;;;;4.55;2.55;;;25.20;50.20;;;;;;5056697;28;20025;-69
2021/06/17 02:21:59;;;;;;;4.20;2.40;;;25.20;50.30;;;;;;5056371;28;20096;-70
2021/06/17 02:24:26;;;;;;;3.97;2.28;;;25.10;50.30;;;;;;5056390;28;20108;-69
2021/06/17 02:26:57;;;;;;;3.60;2.33;;;25.10;50.30;;;;;;5056262;28;20477;-69
2021/06/17 02:29:24;;;;;;;4.00;2.40;;;25.10;50.30;;;;;;5056498;28;20036;-70
2021/06/17 02:31:53;;;;;;;4.47;2.45;;;25.10;50.30;;;;;;5054771;28;20037;-69
2021/06/17 02:34:19;;;;;;;3.60;2.13;;;25.10;50.30;;;;;;5056135;28;20491;-70
2021/06/17 02:36:47;;;;;;;4.70;2.22;;;25.10;50.30;;;;;;5056097;28;20025;-69
2021/06/17 02:39:17;;;;;;;7.25;2.83;;;25.10;50.30;;;;;;5054617;28;20028;-70
2021/06/17 02:41:50;;;;;;;5.00;2.65;;;25.10;50.30;;;;;;5056118;28;20393;-69
2021/06/17 02:44:18;;;;;;;5.25;2.25;;;25.10;50.40;;;;;;5055849;28;20033;-70
2021/06/17 02:46:44;;;;;;;4.78;2.80;;;25.10;50.40;;;;;;5054552;28;20036;-69
2021/06/17 02:49:09;;;;;;;6.55;2.60;;;25.10;50.30;;;;;;5054522;28;20021;-70
2021/06/17 02:51:35;;;;;;;5.90;2.22;;;25.10;50.40;;;;;;5054834;28;20036;-69
2021/06/17 02:54:01;;;;;;;5.55;2.20;;;25.00;50.40;;;;;;5056380;28;20017;-70
2021/06/17 02:56:58;;;;;;;4.68;2.35;;;25.00;50.40;;;;;;5055964;28;20543;-70
2021/06/17 02:59:58;;;;;;;4.50;2.40;;;25.00;50.40;;;;;;5055798;28;20029;-70
2021/06/17 03:02:37;;;;;;;4.65;2.83;;;25.00;50.40;;;;;;5056205;28;20079;-70
2021/06/17 03:05:11;;;;;;;5.03;2.50;;;25.00;50.40;;;;;;5055953;28;20021;-69
2021/06/17 03:07:44;;;;;;;4.40;2.25;;;25.00;50.40;;;;;;5055683;28;20037;-70
2021/06/17 03:10:11;;;;;;;4.47;2.38;;;25.00;50.50;;;;;;5055489;28;20036;-70
2021/06/17 03:12:42;;;;;;;4.88;2.60;;;25.00;50.40;;;;;;5055928;28;20041;-69
2021/06/17 03:15:08;;;;;;;3.45;2.10;;;25.00;50.50;;;;;;5056169;28;20025;-70
2021/06/17 03:17:38;;;;;;;5.18;2.42;;;25.00;50.50;;;;;;5055728;28;20021;-70
2021/06/17 03:20:07;;;;;;;4.28;2.40;;;25.00;50.50;;;;;;5056177;28;20025;-70
2021/06/17 03:22:34;;;;;;;4.07;2.30;;;25.00;50.50;;;;;;5056516;28;20035;-70
2021/06/17 03:25:05;;;;;;;4.03;2.20;;;25.00;50.50;;;;;;5065484;28;20483;-70
2021/06/17 03:27:32;;;;;;;5.28;2.60;;;25.00;50.50;;;;;;5058991;28;20025;-70
2021/06/17 03:30:00;;;;;;;5.15;2.45;;;25.00;50.50;;;;;;5054611;28;20392;-70
2021/06/17 03:32:27;;;;;;;3.75;2.15;;;25.00;50.50;;;;;;5055361;28;20564;-70
2021/06/17 03:34:54;;;;;;;5.35;2.30;;;25.00;50.50;;;;;;5055708;28;20057;-70
2021/06/17 03:37:21;;;;;;;3.95;2.03;;;25.00;50.50;;;;;;5055274;28;20029;-70
2021/06/17 03:39:48;;;;;;;4.50;2.22;;;24.90;50.50;;;;;;5055284;28;20021;-70
2021/06/17 03:42:15;;;;;;;4.18;2.40;;;25.00;50.50;;;;;;5055083;28;20072;-70
2021/06/17 03:44:42;;;;;;;4.07;2.50;;;24.90;50.60;;;;;;5054958;28;20048;-70
2021/06/17 03:47:11;;;;;;;5.40;2.67;;;25.00;50.60;;;;;;5054805;28;20140;-70
2021/06/17 03:49:37;;;;;;;4.40;2.10;;;24.90;50.60;;;;;;5055037;28;20025;-70
2021/06/17 03:52:04;;;;;;;6.68;2.38;;;24.90;50.60;;;;;;5054853;28;20041;-70
2021/06/17 03:54:31;;;;;;;5.53;2.70;;;25.00;50.60;;;;;;5054886;28;20053;-70
2021/06/17 03:56:59;;;;;;;4.65;2.60;;;24.90;50.60;;;;;;5053707;28;20043;-69
2021/06/17 03:59:28;;;;;;;4.95;2.30;;;24.90;50.60;;;;;;5054834;28;20054;-70
2021/06/17 04:01:55;;;;;;;3.70;2.10;;;24.90;50.60;;;;;;5054725;28;20037;-70
2021/06/17 04:04:21;;;;;;;4.03;2.60;;;24.90;50.60;;;;;;5054810;28;20013;-70
2021/06/17 04:06:52;;;;;;;4.75;2.53;;;24.90;50.60;;;;;;5054706;28;20039;-70
2021/06/17 04:09:33;;;;;;;5.28;2.60;;;24.90;50.60;;;;;;5054708;28;20067;-70
2021/06/17 04:12:06;;;;;;;4.22;2.38;;;24.90;50.60;;;;;;5054645;28;20040;-69
2021/06/17 04:14:35;;;;;;;4.15;2.30;;;24.90;50.60;;;;;;5054699;28;20025;-70
2021/06/17 04:17:03;;;;;;;3.80;2.20;;;24.90;50.60;;;;;;5054207;28;20615;-70
2021/06/17 04:19:31;;;;;;;4.47;2.53;;;24.80;50.60;;;;;;5054288;28;20024;-70
2021/06/17 04:22:01;;;;;;;3.78;2.22;;;24.80;50.60;;;;;;5054363;28;20033;-70
2021/06/17 04:24:32;;;;;;;3.75;2.45;;;24.80;50.70;;;;;;5054531;28;20060;-70
2021/06/17 04:26:59;;;;;;;5.68;2.70;;;24.80;50.70;;;;;;5054222;28;20029;-70
2021/06/17 04:29:25;;;;;;;4.15;2.25;;;24.80;50.70;;;;;;5054442;28;20096;-69
2021/06/17 04:31:53;;;;;;;4.75;2.40;;;24.80;50.70;;;;;;5054502;28;20041;-69
2021/06/17 04:34:20;;;;;;;4.05;2.20;;;24.80;50.70;;;;;;5055688;28;20056;-69
2021/06/17 04:36:46;;;;;;;5.00;2.55;;;24.80;50.70;;;;;;5063428;28;20390;-70
2021/06/17 04:39:12;;;;;;;3.80;2.10;;;24.80;50.70;;;;;;5059073;28;20488;-70
2021/06/17 04:41:40;;;;;;;4.80;2.35;;;24.80;50.70;;;;;;5055058;28;20382;-69
2021/06/17 04:44:06;;;;;;;4.53;2.60;;;24.80;50.70;;;;;;5053919;28;20044;-69
2021/06/17 04:46:34;;;;;;;4.78;2.60;;;24.80;50.70;;;;;;5053967;28;20548;-69
2021/06/17 04:49:00;;;;;;;4.20;2.42;;;24.80;50.70;;;;;;5052554;28;20035;-69
2021/06/17 04:51:29;;;;;;;4.65;2.70;;;24.80;50.70;;;;;;5053751;28;20030;-70
2021/06/17 04:53:55;;;;;;;5.68;2.45;;;24.80;50.60;;;;;;5053853;28;20041;-70
2021/06/17 04:56:22;;;;;;;5.15;2.60;;;24.80;50.60;;;;;;5053730;28;20047;-70
2021/06/17 04:58:50;;;;;;;3.92;2.35;;;24.80;50.60;;;;;;5053654;28;20021;-69
2021/06/17 05:01:18;;;;;;;3.92;2.50;;;24.80;50.70;;;;;;5053665;28;20088;-69
2021/06/17 05:03:46;;;;;;;3.63;2.38;;;24.80;50.70;;;;;;5053404;28;20180;-70
2021/06/17 05:06:13;;;;;;;5.47;2.28;;;24.80;50.70;;;;;;5053461;28;20092;-68
2021/06/17 05:11:23;;;;;;;;;;;24.80;50.70;;;;;;5053583;28;20083;-68
2021/06/17 05:13:49;;;;;;;4.13;2.40;;;24.80;50.70;;;;;;5053109;28;19904;-68
2021/06/17 05:16:14;;;;;;;4.60;2.42;;;24.80;50.80;;;;;;5053056;28;20037;-69
2021/06/17 05:18:40;;;;;;;4.22;2.45;;;24.80;50.80;;;;;;5053230;28;20393;-69
2021/06/17 05:21:07;;;;;;;5.05;2.22;;;24.70;50.80;;;;;;5059546;28;20520;-69
2021/06/17 05:23:34;;;;;;;4.82;2.55;;;24.80;50.80;;;;;;5053243;28;20108;-68
2021/06/17 05:26:00;;;;;;;4.43;2.53;;;24.80;50.80;;;;;;5053889;28;20025;-69
2021/06/17 05:28:27;;;;;;;4.93;2.45;;;24.80;50.80;;;;;;5053089;28;20031;-69
2021/06/17 05:30:56;;;;;;;5.05;2.80;;;24.80;50.80;;;;;;5053139;28;20112;-70
2021/06/17 05:33:21;;;;;;;4.13;2.17;;;24.80;50.70;;;;;;5053344;28;20033;-70
2021/06/17 05:35:48;;;;;;;3.88;2.33;;;24.80;50.80;;;;;;5053169;28;20056;-70
2021/06/17 05:38:17;;;;;;;4.93;2.78;;;24.80;50.70;;;;;;5052895;28;20039;-69
2021/06/17 05:40:43;;;;;;;5.97;3.03;;;24.80;50.70;;;;;;5052980;28;20095;-69
2021/06/17 05:43:08;;;;;;;4.95;2.75;;;24.80;50.70;;;;;;5053247;28;20462;-69
2021/06/17 05:45:34;;;;;;;5.25;2.20;;;24.80;50.70;;;;;;5051441;28;20045;-69
2021/06/17 05:48:00;;;;;;;4.82;2.53;;;24.80;50.70;;;;;;5053038;28;20083;-70
2021/06/17 05:50:25;;;;;;;4.55;2.50;;;24.80;50.70;;;;;;5053041;28;20083;-70
2021/06/17 05:52:51;;;;;;;4.25;2.42;;;24.90;50.70;;;;;;5052615;28;20087;-69
2021/06/17 05:55:16;;;;;;;4.82;2.67;;;24.80;50.60;;;;;;5052767;28;20024;-69
2021/06/17 05:57:42;;;;;;;4.22;2.55;;;24.80;50.60;;;;;;5051309;28;20024;-69
2021/06/17 06:00:09;;;;;;;4.70;2.30;;;24.90;50.50;;;;;;5052553;28;20052;-69
2021/06/17 06:02:35;;;;;;;4.22;2.40;;;24.90;50.40;;;;;;5052630;28;20091;-70
2021/06/17 06:05:02;;;;;;;5.82;2.83;;;24.90;50.40;;;;;;5052646;28;20108;-69
2021/06/17 06:07:27;;;;;;;4.75;2.47;;;24.90;50.40;;;;;;5052435;28;20036;-69
2021/06/17 06:09:53;;;;;;;4.25;2.38;;;24.90;50.50;;;;;;5052809;28;20025;-69
2021/06/17 06:12:18;;;;;;;6.10;2.45;;;25.00;50.40;;;;;;5052518;28;20040;-68
2021/06/17 06:14:44;;;;;;;4.40;2.13;;;24.90;50.40;;;;;;5052445;28;20401;-69
2021/06/17 06:17:10;;;;;;;3.97;2.00;;;25.00;50.40;;;;;;5052583;28;20503;-69
2021/06/17 06:19:36;;;;;;;4.90;2.65;;;24.90;50.40;;;;;;5052653;28;20024;-69
2021/06/17 06:22:04;;;;;;;4.57;2.38;;;24.90;50.40;;;;;;5052214;28;20448;-69
2021/06/17 06:24:31;;;;;;;3.38;2.10;;;25.00;50.40;;;;;;5052460;28;20075;-69
2021/06/17 06:26:59;;;;;;;5.03;2.60;;;25.00;50.40;;;;;;5052373;28;20025;-69
2021/06/17 06:29:24;;;;;;;4.50;2.40;;;25.00;50.30;;;;;;5052346;28;20125;-69
2021/06/17 06:31:50;;;;;;;4.13;2.50;;;25.00;50.30;;;;;;5052137;28;20527;-69
2021/06/17 06:34:16;;;;;;;4.35;2.60;;;25.00;50.30;;;;;;5052681;28;20021;-69
2021/06/17 06:36:41;;;;;;;5.35;2.10;;;25.00;50.30;;;;;;5052519;28;20029;-69
2021/06/17 06:39:07;;;;;;;3.53;2.00;;;25.00;50.20;;;;;;5052391;28;20025;-68
2021/06/17 06:41:32;;;;;;;3.88;2.17;;;25.00;50.20;;;;;;5058275;28;20029;-69
2021/06/17 06:43:58;;;;;;;3.92;2.33;;;25.00;50.20;;;;;;5058531;28;20071;-69
2021/06/17 06:46:23;;;;;;;4.22;2.45;;;25.00;50.10;;;;;;5055474;28;20029;-69
2021/06/17 06:48:49;;;;;;;4.05;2.13;;;25.00;50.10;;;;;;5056169;28;20025;-70
2021/06/17 06:51:15;;;;;;;4.43;2.20;;;25.00;50.10;;;;;;5056229;28;20032;-69
2021/06/17 06:53:40;;;;;;;4.72;2.53;;;25.10;50.00;;;;;;5056297;28;20029;-69
2021/06/17 06:56:06;;;;;;;3.70;2.20;;;25.00;50.00;;;;;;5055451;28;20023;-69
2021/06/17 06:58:31;;;;;;;5.20;2.22;;;25.10;50.00;;;;;;5056087;28;20035;-70
2021/06/17 07:00:57;;;;;;;4.47;2.20;;;25.10;49.90;;;;;;5055996;28;20473;-70
2021/06/17 07:03:22;;;;;;;4.03;2.33;;;25.10;49.90;;;;;;5056007;28;20464;-69
2021/06/17 07:05:48;;;;;;;4.03;2.20;;;25.10;49.90;;;;;;5056231;28;20032;-69
2021/06/17 07:08:14;;;;;;;4.45;2.00;;;25.10;49.80;;;;;;5055968;28;20076;-69
2021/06/17 07:10:43;;;;;;;4.53;2.10;;;25.20;49.80;;;;;;5056077;28;20031;-70
2021/06/17 07:13:09;;;;;;;3.90;2.13;;;25.10;49.80;;;;;;5061382;28;20051;-69
2021/06/17 07:15:34;;;;;;;4.40;2.30;;;25.20;49.80;;;;;;5056494;28;20473;-70
2021/06/17 07:18:00;;;;;;;4.15;2.10;;;25.20;49.80;;;;;;5056884;28;20025;-70
2021/06/17 07:20:26;;;;;;;4.00;2.20;;;25.20;49.80;;;;;;5064431;28;20076;-70
2021/06/17 07:22:55;;;;;;;4.05;2.30;;;25.20;49.80;;;;;;5066311;28;20035;-72
2021/06/17 07:25:22;;;;;;;3.72;1.55;;;25.20;49.70;;;;;;5061626;28;20036;-69
2021/06/17 07:27:47;;;;;;;3.42;1.80;;;25.20;49.80;;;;;;5057939;28;20392;-69
2021/06/17 07:30:13;;;;;;;4.15;2.20;;;25.20;49.70;;;;;;5049753;28;20097;-70
2021/06/17 07:32:39;;;;;;;5.05;2.40;;;25.20;49.80;;;;;;5041918;28;20439;-69
2021/06/17 07:35:05;;;;;;;3.92;2.28;;;25.20;49.80;;;;;;5053164;28;20017;-71
2021/06/17 07:37:30;;;;;;;3.53;1.90;;;25.30;49.70;;;;;;5054331;28;20350;-69
2021/06/17 07:39:56;;;;;;;8.45;2.20;;;25.20;49.70;;;;;;5053920;28;20025;-66
2021/06/17 07:42:21;;;;;;;4.90;2.35;;;25.20;50.00;;;;;;5052277;28;20513;-64
2021/06/17 07:44:49;;;;;;;6.68;2.40;;;25.30;50.10;;;;;;5053052;28;20053;-64
2021/06/17 07:47:15;;;;;;;3.45;1.73;;;25.20;50.20;;;;;;5052933;28;20032;-68
2021/06/17 07:49:40;;;;;;;4.72;2.38;;;25.20;50.10;;;;;;5051951;28;20029;-65
2021/06/17 07:52:06;;;;;;;5.78;2.47;;;25.20;50.20;;;;;;5051280;28;20114;-64
2021/06/17 07:54:32;;;;;;;4.20;2.00;;;25.20;50.30;;;;;;5053370;28;20033;-65
2021/06/17 07:56:57;;;;;;;10.30;2.63;;;25.20;50.30;;;;;;5049674;28;20108;-64
2021/06/17 07:59:24;;;;;;;5.03;2.42;;;25.20;50.30;;;;;;5036506;28;20147;-64
2021/06/17 08:01:51;;;;;;;4.00;1.58;;;25.20;50.30;;;;;;5034056;28;20418;-64
2021/06/17 08:04:17;;;;;;;6.00;2.20;;;25.20;50.30;;;;;;5032613;28;20471;-64
2021/06/17 08:06:43;;;;;;;6.45;2.45;;;25.20;50.30;;;;;;5047507;28;20052;-63
2021/06/17 08:09:09;;;;;;;5.65;2.17;;;25.20;50.30;;;;;;5053376;28;20017;-63
2021/06/17 08:11:35;;;;;;;5.75;2.15;;;25.20;50.30;;;;;;5053349;28;20025;-65
2021/06/17 08:14:01;;;;;;;6.65;2.03;;;25.30;50.40;;;;;;5053251;28;20037;-64
2021/06/17 08:16:26;;;;;;;4.03;2.10;;;25.30;50.30;;;;;;5052712;28;20029;-64
2021/06/17 08:18:54;;;;;;;5.22;2.20;;;25.30;50.30;;;;;;5053229;28;20036;-64
2021/06/17 08:21:21;;;;;;;4.22;2.15;;;25.30;50.30;;;;;;5053368;28;20383;-67
2021/06/17 08:23:47;;;;;;;5.95;2.33;;;25.30;50.30;;;;;;5053366;28;20033;-68
2021/06/17 08:26:12;;;;;;;4.10;2.03;;;25.30;50.40;;;;;;5053206;28;20547;-70
2021/06/17 08:28:38;;;;;;;5.70;2.33;;;25.30;50.40;;;;;;5053746;28;20029;-68
2021/06/17 08:31:03;;;;;;;6.38;2.28;;;25.40;50.40;;;;;;5054171;28;20083;-68
2021/06/17 08:33:33;;;;;;;4.22;1.85;;;25.40;50.50;;;;;;5053559;28;20037;-69
2021/06/17 08:36:02;;;;;;;2.40;1.05;;;25.40;50.30;;;;;;5053273;28;20017;-71
2021/06/17 08:38:28;;;;;;;4.63;2.20;;;25.40;50.30;;;;;;5054052;28;20028;-74
2021/06/17 08:40:54;;;;;;;5.32;2.35;;;25.50;50.40;;;;;;5053741;28;20027;-69
2021/06/17 08:43:20;;;;;;;8.73;2.67;;;25.40;50.40;;;;;;5052151;28;20036;-69
2021/06/17 08:45:45;;;;;;;4.40;1.90;;;25.40;50.40;;;;;;5052586;28;20049;-69
2021/06/17 08:48:12;;;;;;;6.18;2.35;;;25.40;50.40;;;;;;5053031;28;20024;-69
2021/06/17 08:50:37;;;;;;;12.32;2.10;;;25.40;50.40;;;;;;5053169;28;20104;-67
2021/06/17 08:53:04;;;;;;;5.05;2.30;;;25.40;50.40;;;;;;5052746;28;20117;-68
2021/06/17 08:55:30;;;;;;;4.55;2.00;;;25.40;50.40;;;;;;5053012;28;20052;-67
2021/06/17 08:57:57;;;;;;;4.45;2.38;;;25.50;50.40;;;;;;5053664;28;20033;-68
2021/06/17 09:00:23;;;;;;;3.30;1.60;;;25.40;50.40;;;;;;5056793;28;20115;-68
2021/06/17 09:03:06;;;;;;;4.00;2.28;;;25.50;50.30;;;;;;5054828;28;20013;-69
2021/06/17 09:05:34;;;;;;;3.60;1.55;;;25.50;50.30;;;;;;5052313;28;20454;-69
2021/06/17 09:08:01;;;;;;;4.97;2.10;;;25.50;50.30;;;;;;5052111;28;20320;-69
2021/06/17 09:10:27;;;;;;;4.50;1.85;;;25.40;50.40;;;;;;5051947;28;20021;-69
2021/06/17 09:12:56;;;;;;;3.78;1.92;;;25.50;50.30;;;;;;5051859;28;20112;-69
2021/06/17 09:15:30;;;;;;;5.45;2.22;;;25.40;50.30;;;;;;5051358;28;20256;-69
2021/06/17 09:18:16;;;;;;;7.57;2.53;;;25.50;50.40;;;;;;5052406;28;20547;-69
2021/06/17 09:20:49;;;;;;;3.55;1.52;;;25.50;50.40;;;;;;5052680;28;20018;-69
2021/06/17 09:23:26;;;;;;;4.40;2.25;;;25.50;50.40;;;;;;5051453;28;20025;-68
2021/06/17 09:25:58;;;;;;;4.20;2.33;;;25.40;50.30;;;;;;5049986;28;20017;-71
2021/06/17 09:28:25;;;;;;;4.55;1.85;;;25.50;50.40;;;;;;5050758;28;20028;-70
2021/06/17 09:30:51;;;;;;;5.43;2.03;;;25.50;50.50;;;;;;5042520;28;20037;-67
2021/06/17 09:33:17;;;;;;;4.78;2.17;;;25.50;50.40;;;;;;5031952;28;20047;-68
2021/06/17 09:35:55;;;;;;;5.07;1.95;;;25.50;50.50;;;;;;5050182;28;20021;-65
2021/06/17 09:38:21;;;;;;;4.47;2.08;;;25.50;50.40;;;;;;5032236;28;20069;-67
2021/06/17 09:40:50;;;;;;;8.90;2.33;;;25.50;50.40;;;;;;5048917;28;20025;-69
2021/06/17 09:43:20;;;;;;;5.85;1.80;;;25.50;50.40;;;;;;5051012;28;20034;-69
2021/06/17 09:46:10;;;;;;;4.70;2.00;;;25.50;50.30;;;;;;5050391;28;20072;-69
2021/06/17 09:48:49;;;;;;;5.93;2.05;;;25.50;50.30;;;;;;5047656;28;20037;-68
2021/06/17 09:51:26;;;;;;;3.05;1.73;;;25.50;50.30;;;;;;5052557;28;20357;-69
2021/06/17 09:54:17;;;;;;;4.10;1.70;;;25.50;50.30;;;;;;5052503;28;20100;-69
2021/06/17 09:56:52;;;;;;;4.15;1.70;;;25.50;50.30;;;;;;5052614;28;20063;-68
2021/06/17 09:59:39;;;;;;;5.20;1.90;;;25.50;50.30;;;;;;5052711;28;20155;-68
2021/06/17 10:02:07;;;;;;;2.58;1.65;;;25.50;50.40;;;;;;5052389;28;20029;-68
2021/06/17 10:04:33;;;;;;;4.25;1.90;;;25.50;50.30;;;;;;5051255;28;20453;-68
2021/06/17 10:07:00;;;;;;;4.68;1.80;;;25.50;50.30;;;;;;5052611;28;20025;-68
2021/06/17 10:09:26;;;;;;;3.80;1.80;;;25.50;50.40;;;;;;5052514;28;20033;-68
2021/06/17 10:11:52;;;;;;;6.03;2.10;;;25.50;50.30;;;;;;5052752;28;20029;-68
2021/06/17 10:14:18;;;;;;;4.72;1.77;;;25.60;50.30;;;;;;5051384;28;20037;-69
2021/06/17 10:16:45;;;;;;;4.13;2.15;;;25.60;50.30;;;;;;5052329;28;20423;-69
2021/06/17 10:19:12;;;;;;;4.82;1.50;;;25.60;50.30;;;;;;5056214;28;20032;-69
2021/06/17 10:21:38;;;;;;;7.70;2.40;;;25.60;50.30;;;;;;5054276;28;20029;-68
2021/06/17 10:24:21;;;;;;;6.50;1.90;;;25.60;50.40;;;;;;5055486;28;20036;-67
2021/06/17 10:26:58;;;;;;;4.87;2.10;;;25.60;50.20;;;;;;5053183;28;20037;-68
2021/06/17 10:29:27;;;;;;;4.25;1.98;;;25.70;50.20;;;;;;5050916;28;20037;-69
2021/06/17 10:31:57;;;;;;;7.15;2.85;;;25.60;50.20;;;;;;5051090;28;20107;-69
2021/06/17 10:34:22;;;;;;;4.95;2.38;;;25.60;50.20;;;;;;5055482;28;20033;-68
2021/06/17 10:37:06;;;;;;;5.10;1.55;;;25.70;50.20;;;;;;5054957;28;20029;-68
2021/06/17 10:39:48;;;;;;;7.38;1.50;;;25.70;50.20;;;;;;5054262;28;20039;-68
2021/06/17 10:42:35;;;;;;;4.38;2.00;;;25.70;50.20;;;;;;5049724;28;20033;-68
2021/06/17 10:45:08;;;;;;;4.30;1.98;;;25.70;50.20;;;;;;5054314;28;20086;-68
2021/06/17 10:47:47;;;;;;;3.58;1.60;;;25.70;50.20;;;;;;5053170;28;20053;-68
2021/06/17 10:50:33;;;;;;;5.40;2.22;;;25.70;50.20;;;;;;5052274;28;20099;-68
2021/06/17 10:53:22;;;;;;;8.20;2.40;;;25.70;50.20;;;;;;5053572;28;20507;-68
2021/06/17 10:55:54;;;;;;;3.25;1.50;;;25.80;50.10;;;;;;5054503;28;20029;-68
2021/06/17 10:58:57;;;;;;;3.50;1.70;;;25.80;50.10;;;;;;5055395;28;20097;-68
2021/06/17 11:01:33;;;;;;;2.15;1.05;;;25.80;50.10;;;;;;5009062;28;20481;-67
2021/06/17 11:04:10;;;;;;;6.28;1.58;;;25.80;50.00;;;;;;5049668;28;20064;-69
2021/06/17 11:06:51;;;;;;;3.58;1.60;;;25.80;50.10;;;;;;5052599;28;20380;-68
2021/06/17 11:09:35;;;;;;;4.38;1.85;;;25.80;50.00;;;;;;5032334;28;20021;-68
2021/06/17 11:12:21;;;;;;;4.30;1.50;;;25.90;50.10;;;;;;5034427;28;20331;-68
2021/06/17 11:14:49;;;;;;;3.83;1.83;;;25.90;50.00;;;;;;5034100;28;20068;-68
2021/06/17 11:17:29;;;;;;;4.22;2.20;;;25.90;50.00;;;;;;5034513;28;20021;-67
2021/06/17 11:20:00;;;;;;;6.32;1.95;;;26.00;50.00;;;;;;5034718;28;20425;-67
2021/06/17 11:22:38;;;;;;;3.42;1.88;;;26.00;50.00;;;;;;5034570;28;20404;-67
2021/06/17 11:25:18;;;;;;;4.40;1.90;;;26.00;50.00;;;;;;5034001;28;20073;-67
2021/06/17 11:28:05;;;;;;;6.10;2.40;;;26.00;49.90;;;;;;5034396;28;20115;-68
2021/06/17 11:30:42;;;;;;;5.10;2.22;;;26.00;49.90;;;;;;5032894;28;20025;-66
2021/06/17 11:33:16;;;;;;;2.90;1.63;;;26.00;49.80;;;;;;5049301;28;20033;-67
2021/06/17 11:35:48;;;;;;;3.03;1.55;;;26.10;49.80;;;;;;5054072;28;20086;-68
2021/06/17 11:38:25;;;;;;;3.28;1.80;;;26.10;49.80;;;;;;5053863;28;20022;-68
2021/06/17 11:40:51;;;;;;;3.33;1.75;;;26.10;49.80;;;;;;5052267;28;20377;-68
2021/06/17 11:43:23;;;;;;;4.53;1.80;;;26.20;49.80;;;;;;5051933;28;20032;-67
2021/06/17 11:45:49;;;;;;;5.78;1.50;;;26.20;49.80;;;;;;5053425;28;20041;-68
2021/06/17 11:48:14;;;;;;;2.90;1.50;;;26.20;49.70;;;;;;5053897;28;20029;-68
2021/06/17 11:50:45;;;;;;;3.55;1.80;;;26.30;49.70;;;;;;5039730;28;20017;-68
2021/06/17 11:53:18;;;;;;;5.47;2.35;;;26.30;49.70;;;;;;5052228;28;20483;-66
2021/06/17 11:55:51;;;;;;;4.60;2.38;;;26.40;49.50;;;;;;5052725;28;20024;-67
2021/06/17 11:58:18;;;;;;;3.92;2.17;;;26.40;49.60;;;;;;5053036;28;20106;-67
2021/06/17 12:00:44;;;;;;;2.15;1.40;;;26.40;49.50;;;;;;5053444;28;20013;-67
2021/06/17 12:03:23;;;;;;;5.93;1.75;;;26.40;49.40;;;;;;5053399;28;20387;-67
2021/06/17 12:05:50;;;;;;;3.45;1.80;;;26.40;49.50;;;;;;5044616;28;20057;-67
2021/06/17 12:08:16;;;;;;;3.47;1.52;;;26.50;49.40;;;;;;5051226;28;20073;-67
2021/06/17 12:10:42;;;;;;;3.97;1.75;;;26.60;49.30;;;;;;5052859;28;20025;-67
2021/06/17 12:13:10;;;;;;;2.58;1.48;;;26.60;49.20;;;;;;5053748;28;20032;-67
2021/06/17 12:15:39;;;;;;;4.10;1.88;;;26.60;49.20;;;;;;5054504;28;20028;-67
2021/06/17 12:18:07;;;;;;;8.38;2.03;;;26.60;49.20;;;;;;5054658;28;20025;-67
2021/06/17 12:20:40;;;;;;;3.25;1.70;;;26.70;49.20;;;;;;5054315;28;20024;-67
2021/06/17 12:23:20;;;;;;;2.63;1.63;;;26.70;49.10;;;;;;5054171;28;20469;-67
2021/06/17 12:25:57;;;;;;;5.10;2.00;;;26.80;49.10;;;;;;5054221;28;20469;-67
2021/06/17 12:28:24;;;;;;;4.97;1.42;;;26.80;49.00;;;;;;5057369;28;20032;-67
2021/06/17 12:30:52;;;;;;;5.43;2.13;;;26.90;49.00;;;;;;5056781;28;20021;-67
2021/06/17 12:33:30;;;;;;;4.57;1.80;;;26.90;48.90;;;;;;5053902;28;20106;-67
2021/06/17 12:36:13;;;;;;;2.67;1.40;;;27.00;48.80;;;;;;5054538;28;20025;-67
2021/06/17 12:38:39;;;;;;;5.47;1.50;;;27.00;48.70;;;;;;5053298;28;20106;-67
2021/06/17 12:41:14;;;;;;;3.08;1.40;;;27.00;48.80;;;;;;5053568;28;20020;-67
2021/06/17 12:44:06;;;;;;;4.13;2.08;;;27.00;48.60;;;;;;5053203;28;20024;-67
2021/06/17 12:46:36;;;;;;;2.53;1.40;;;27.10;48.60;;;;;;5055835;28;20504;-67
2021/06/17 12:49:28;;;;;;;3.83;1.50;;;27.20;48.40;;;;;;5061558;28;20021;-67
2021/06/17 12:52:28;;;;;;;4.03;1.73;;;27.20;48.40;;;;;;5055521;28;20045;-67
2021/06/17 12:54:53;;;;;;;2.85;1.63;;;27.20;48.40;;;;;;5052319;28;20037;-67
2021/06/17 12:57:22;;;;;;;3.88;2.10;;;27.30;48.30;;;;;;5053985;28;20028;-67
2021/06/17 13:00:12;;;;;;;4.25;2.00;;;27.40;48.30;;;;;;5053832;28;20025;-67
2021/06/17 13:02:47;;;;;;;2.70;1.63;;;27.50;48.20;;;;;;5053349;28;20025;-67